Accueil
METAR-TAF:

METAR-TAF

Aéroports :

Aéroport international de Bilbao

Bilbao, Espagne

latitude: 43-18N, longitude: 002-56W, altitude: 42 m

Observation

Le bulletin a été fait il y a 32 minutes, à 08:30 UTC
Vent 4 kt de est/sud-est
Température 8°C
Humidité 66%
Pression 1030 hPa
Visibilité 10 km ou plus
pas de nuages en-dessous de 1500 mètres et pas de cumulonimbus.

METAR: LEBB 230830Z 11004KT CAVOK 08/02 Q1030 NOSIG

Heure: 10:02 (09:02 UTC)

Prévision

Le bulletin a été fait il y a 4 heures et 2 minutes, à 05:00 UTC
Prévision valable du 23 à 06 UTC au 24 à 06 UTC
Vent 6 kt de est
Visibilité 10 km ou plus
pas de nuages en-dessous de 1500 mètres et pas de cumulonimbus.
Evoluant progressivement
du 23 à 10 UTC au 23 à 12 UTC
Vent 9 kt de nord-ouest
Evoluant progressivement
du 23 à 17 UTC au 23 à 19 UTC
Vent 6 kt de est

TAF: LEBB 230500Z 2306/2406 10006KT CAVOK TX19/2314Z TN05/2406Z BECMG 2310/2312 32009KT BECMG 2317/2319 10006KT

Observations et prévisions météorologiques de plus de 4000 aéroports (messages METAR et TAF).

Les stations disponibles sont représentées par des disques jaunes et rouges sur la carte.

Passer la souris dessus pour voir le nom de la station.

Cliquer dessus pour voir les observations et prévisions météorologiques.

Pour changer de carte: cliquez sur les boutons verts avec une croix noire pour zoomer, sur le bouton vert avec un tiret pour effectuer un zoom arrière, ou sur les flèches vertes pour les cartes adjacentes.


METAR-TAF: